Time;durP1;ratioP1;P1;durP2;ratioP2;P2;SDS_P1;SDS_P2;PMS_P1;PMS_P2;Temp;Humidity;BMP_temperature;BMP_pressure;BME280_temperature;BME280_humidity;BME280_pressure;Samples;Min_cycle;Max_cycle;Signal;HPM_P1;HPM_P2
2023/01/22 00:00:31;;;;;;;;;;;17.70;64.10;;;;;;5023878;28;805;-73
2023/01/22 00:02:56;;;;;;;;;;;17.70;64.00;;;;;;5024730;28;864;-73
2023/01/22 00:05:22;;;;;;;;;;;17.70;64.10;;;;;;5053495;28;1071;-71
2023/01/22 00:07:47;;;;;;;;;;;17.70;64.10;;;;;;5024710;28;1272;-71
2023/01/22 00:10:13;;;;;;;;;;;17.70;64.10;;;;;;5023061;28;864;-74
2023/01/22 00:12:38;;;;;;;;;;;17.70;64.10;;;;;;5021993;28;812;-72
2023/01/22 00:15:04;;;;;;;;;;;17.70;64.10;;;;;;5020600;28;788;-72
2023/01/22 00:17:29;;;;;;;;;;;17.70;64.10;;;;;;5020002;28;1975;-73
2023/01/22 00:19:55;;;;;;;;;;;17.70;64.10;;;;;;5023796;28;928;-72
2023/01/22 00:22:21;;;;;;;;;;;17.70;64.10;;;;;;5020287;28;852;-72
2023/01/22 00:24:46;;;;;;;;;;;17.70;64.10;;;;;;5056968;28;840;-72
2023/01/22 00:27:12;;;;;;;;;;;17.70;64.10;;;;;;5019219;28;1346;-73
2023/01/22 00:29:37;;;;;;;;;;;17.70;64.20;;;;;;5018965;28;788;-72
2023/01/22 00:32:03;;;;;;;;;;;17.70;64.10;;;;;;5026273;28;1329;-72
2023/01/22 00:34:28;;;;;;;;;;;17.60;64.10;;;;;;5021217;28;1412;-72
2023/01/22 00:36:54;;;;;;;;;;;17.60;64.10;;;;;;5022996;28;1977;-72
2023/01/22 00:39:19;;;;;;;;;;;17.70;64.10;;;;;;5019146;28;871;-72
2023/01/22 00:41:45;;;;;;;;;;;17.70;64.20;;;;;;5035563;28;888;-72
2023/01/22 00:44:10;;;;;;;;;;;17.60;64.20;;;;;;5018168;28;1636;-72
2023/01/22 00:46:36;;;;;;;;;;;17.70;64.20;;;;;;5050963;28;1291;-72
2023/01/22 00:49:02;;;;;;;;;;;17.60;64.20;;;;;;5017886;28;950;-72
2023/01/22 00:51:28;;;;;;;;;;;17.60;64.10;;;;;;5018138;28;872;-72
2023/01/22 00:53:53;;;;;;;;;;;17.60;64.10;;;;;;5033679;28;828;-72
2023/01/22 00:56:19;;;;;;;;;;;17.70;64.20;;;;;;5019419;28;1957;-72
2023/01/22 00:58:44;;;;;;;;;;;17.60;64.20;;;;;;5017742;28;1264;-73
2023/01/22 01:01:11;;;;;;;;;;;17.70;64.20;;;;;;5020274;28;970;-72
2023/01/22 01:03:36;;;;;;;;;;;17.60;64.20;;;;;;5024136;28;1294;-72
2023/01/22 01:06:06;;;;;;;;;;;17.60;64.20;;;;;;5034749;28;833;-72
2023/01/22 01:08:33;;;;;;;;;;;17.60;64.20;;;;;;5027401;28;1409;-71
2023/01/22 01:11:02;;;;;;;;;;;17.60;64.20;;;;;;5049359;28;899;-72
2023/01/22 01:13:29;;;;;;;;;;;17.60;64.90;;;;;;5022706;28;947;-72
2023/01/22 01:15:58;;;;;;;;;;;17.60;64.20;;;;;;5017989;28;1934;-73
2023/01/22 01:18:23;;;;;;;;;;;17.60;64.20;;;;;;5034693;28;1321;-72
2023/01/22 01:20:52;;;;;;;;;;;17.60;64.20;;;;;;5019747;28;895;-72
2023/01/22 01:23:18;;;;;;;;;;;17.60;64.20;;;;;;5053639;28;946;-72
2023/01/22 01:25:43;;;;;;;;;;;17.60;64.30;;;;;;5016881;28;1354;-72
2023/01/22 01:28:09;;;;;;;;;;;17.60;64.20;;;;;;5036171;28;1613;-73
2023/01/22 01:30:34;;;;;;;;;;;17.60;64.20;;;;;;5021991;28;863;-72
2023/01/22 01:33:00;;;;;;;;;;;17.60;64.20;;;;;;5020736;28;844;-73
2023/01/22 01:35:25;;;;;;;;;;;17.60;64.20;;;;;;5022010;28;1902;-72
2023/01/22 01:37:52;;;;;;;;;;;17.60;64.20;;;;;;5017687;28;1253;-72
2023/01/22 01:40:17;;;;;;;;;;;17.60;64.30;;;;;;5020362;28;777;-72
2023/01/22 01:42:43;;;;;;;;;;;17.60;64.30;;;;;;5021471;28;915;-73
2023/01/22 01:45:28;;;;;;;;;;;17.60;64.30;;;;;;5023006;28;879;-72
2023/01/22 01:48:02;;;;;;;;;;;17.60;64.30;;;;;;5020943;28;1247;-72
2023/01/22 01:50:28;;;;;;;;;;;17.60;64.30;;;;;;5023474;28;966;-72
2023/01/22 01:52:53;;;;;;;;;;;17.60;64.30;;;;;;5051163;28;837;-72
2023/01/22 01:55:20;;;;;;;;;;;17.60;64.30;;;;;;5018997;28;1965;-71
2023/01/22 01:57:46;;;;;;;;;;;17.60;64.30;;;;;;5052128;28;1260;-71
2023/01/22 02:00:11;;;;;;;;;;;17.60;64.30;;;;;;5020181;28;813;-73
2023/01/22 02:02:37;;;;;;;;;;;17.60;64.30;;;;;;5022907;28;1043;-73
2023/01/22 02:05:03;;;;;;;;;;;17.60;64.30;;;;;;5022352;28;1243;-72
2023/01/22 02:07:28;;;;;;;;;;;17.60;64.30;;;;;;5020935;28;1259;-71
2023/01/22 02:09:54;;;;;;;;;;;17.60;64.30;;;;;;5035253;28;880;-71
2023/01/22 02:12:19;;;;;;;;;;;17.60;64.30;;;;;;5017873;28;1014;-70
2023/01/22 02:14:45;;;;;;;;;;;17.60;64.30;;;;;;5050844;28;809;-73
2023/01/22 02:17:12;;;;;;;;;;;17.60;64.30;;;;;;5053084;28;1909;-74
2023/01/22 02:19:38;;;;;;;;;;;17.60;64.40;;;;;;5030335;28;1341;-73
2023/01/22 02:22:13;;;;;;;;;;;17.60;64.30;;;;;;5053464;28;1331;-73
2023/01/22 02:24:38;;;;;;;;;;;17.60;64.40;;;;;;5022085;28;1489;-72
2023/01/22 02:27:04;;;;;;;;;;;17.60;64.40;;;;;;5021220;28;1414;-72
2023/01/22 02:29:29;;;;;;;;;;;17.60;64.40;;;;;;5025270;28;1492;-71
2023/01/22 02:31:55;;;;;;;;;;;17.60;64.40;;;;;;5022515;28;1606;-70
2023/01/22 02:34:23;;;;;;;;;;;17.60;64.40;;;;;;5022899;28;1417;-73
2023/01/22 02:36:48;;;;;;;;;;;17.60;64.40;;;;;;5016741;28;1914;-74
2023/01/22 02:39:14;;;;;;;;;;;17.60;64.40;;;;;;5017385;28;1018;-74
2023/01/22 02:41:39;;;;;;;;;;;17.60;64.40;;;;;;5015392;28;1495;-73
2023/01/22 02:44:06;;;;;;;;;;;17.60;64.40;;;;;;5015595;28;891;-73
2023/01/22 02:46:31;;;;;;;;;;;17.60;64.40;;;;;;5017140;28;1359;-74
2023/01/22 02:48:57;;;;;;;;;;;17.60;64.40;;;;;;5021518;28;962;-74
2023/01/22 02:51:22;;;;;;;;;;;17.60;64.40;;;;;;5018251;28;1042;-74
2023/01/22 02:53:48;;;;;;;;;;;17.60;64.40;;;;;;5018293;28;1281;-74
2023/01/22 02:56:13;;;;;;;;;;;17.60;64.40;;;;;;5031897;28;1965;-72
2023/01/22 02:58:39;;;;;;;;;;;17.60;64.40;;;;;;5019235;28;1265;-74
2023/01/22 03:01:17;;;;;;;;;;;17.60;64.40;;;;;;5018311;28;1002;-74
2023/01/22 03:03:44;;;;;;;;;;;17.60;64.40;;;;;;5018909;28;1242;-74
2023/01/22 03:06:09;;;;;;;;;;;17.60;64.40;;;;;;5018283;28;1251;-74
2023/01/22 03:08:34;;;;;;;;;;;17.50;64.40;;;;;;5017873;28;1280;-75
2023/01/22 03:11:00;;;;;;;;;;;17.60;64.40;;;;;;5021294;28;789;-73
2023/01/22 03:21:42;;;;;;;;;;;17.50;64.40;;;;;;5017383;28;801;-73
2023/01/22 03:24:08;;;;;;;;;;;17.60;64.50;;;;;;5036721;28;1555;-72
2023/01/22 03:26:34;;;;;;;;;;;17.60;64.50;;;;;;5052370;28;1326;-72
2023/01/22 03:28:59;;;;;;;;;;;17.50;64.40;;;;;;5022321;28;873;-74
2023/01/22 03:31:25;;;;;;;;;;;17.50;64.40;;;;;;5019693;28;938;-73
2023/01/22 03:33:50;;;;;;;;;;;17.50;64.40;;;;;;5020298;28;812;-72
2023/01/22 03:36:15;;;;;;;;;;;17.50;64.40;;;;;;5016625;28;2002;-71
2023/01/22 03:38:41;;;;;;;;;;;17.50;64.40;;;;;;5020240;28;1227;-74
2023/01/22 03:41:10;;;;;;;;;;;17.50;64.40;;;;;;5018557;28;847;-71
2023/01/22 03:43:35;;;;;;;;;;;17.50;64.40;;;;;;5016442;28;959;-72
2023/01/22 03:46:05;;;;;;;;;;;17.50;64.40;;;;;;5019688;28;853;-73
2023/01/22 03:48:30;;;;;;;;;;;17.50;64.40;;;;;;5021927;28;1271;-71
2023/01/22 03:50:56;;;;;;;;;;;17.50;64.40;;;;;;5020056;28;1296;-71
2023/01/22 03:53:21;;;;;;;;;;;17.50;65.20;;;;;;5050024;28;817;-70
2023/01/22 03:55:55;;;;;;;;;;;17.50;64.50;;;;;;5016927;28;1914;-71
2023/01/22 03:58:20;;;;;;;;;;;17.50;64.40;;;;;;5048864;28;1280;-71
2023/01/22 04:00:46;;;;;;;;;;;17.50;64.50;;;;;;5019412;28;920;-72
2023/01/22 04:03:12;;;;;;;;;;;17.50;64.50;;;;;;5018512;28;1241;-74
2023/01/22 04:05:37;;;;;;;;;;;17.50;64.40;;;;;;5019308;28;872;-74
2023/01/22 04:08:03;;;;;;;;;;;17.50;64.40;;;;;;5019557;28;1374;-75
2023/01/22 04:10:29;;;;;;;;;;;17.50;64.50;;;;;;5019072;28;1239;-74
2023/01/22 04:12:55;;;;;;;;;;;17.50;64.50;;;;;;5020173;28;812;-71
2023/01/22 04:15:20;;;;;;;;;;;17.50;64.40;;;;;;5016987;28;801;-70
2023/01/22 04:17:46;;;;;;;;;;;17.50;64.50;;;;;;5022800;28;1907;-72
2023/01/22 04:20:11;;;;;;;;;;;17.50;64.50;;;;;;5022279;28;862;-69
2023/01/22 04:22:37;;;;;;;;;;;17.50;64.50;;;;;;5023246;28;872;-71
2023/01/22 04:25:03;;;;;;;;;;;17.50;64.50;;;;;;5023064;28;796;-72
2023/01/22 04:27:28;;;;;;;;;;;17.50;64.50;;;;;;5020044;28;1246;-72
2023/01/22 04:29:53;;;;;;;;;;;17.50;64.50;;;;;;5023519;28;896;-72
2023/01/22 04:32:19;;;;;;;;;;;17.50;64.50;;;;;;5021423;28;822;-72
2023/01/22 04:34:46;;;;;;;;;;;17.50;64.50;;;;;;5022623;28;1633;-72
2023/01/22 04:37:11;;;;;;;;;;;17.50;64.50;;;;;;5022767;28;1914;-72
2023/01/22 04:39:37;;;;;;;;;;;17.50;64.50;;;;;;5023850;28;872;-73
2023/01/22 04:42:02;;;;;;;;;;;17.50;64.50;;;;;;5023295;28;915;-72
2023/01/22 04:44:28;;;;;;;;;;;17.50;64.50;;;;;;5034917;28;937;-73
2023/01/22 04:46:53;;;;;;;;;;;17.50;64.50;;;;;;5021172;28;1335;-73
2023/01/22 04:49:19;;;;;;;;;;;17.50;64.50;;;;;;5051936;28;808;-73
2023/01/22 04:51:44;;;;;;;;;;;17.50;64.50;;;;;;5020059;28;883;-73
2023/01/22 04:54:10;;;;;;;;;;;17.50;64.50;;;;;;5019693;28;904;-73
2023/01/22 04:56:35;;;;;;;;;;;17.50;64.50;;;;;;5021361;28;1973;-70
2023/01/22 04:59:00;;;;;;;;;;;17.50;64.50;;;;;;5021436;28;1014;-72
2023/01/22 05:01:26;;;;;;;;;;;17.50;64.50;;;;;;5023248;28;869;-71
2023/01/22 05:03:51;;;;;;;;;;;17.50;64.50;;;;;;5018570;28;977;-71
2023/01/22 05:06:17;;;;;;;;;;;17.50;64.50;;;;;;5035890;28;1194;-72
2023/01/22 05:08:42;;;;;;;;;;;17.50;64.50;;;;;;5021078;28;1401;-73
2023/01/22 05:11:08;;;;;;;;;;;17.50;64.50;;;;;;5020510;28;1259;-72
2023/01/22 05:13:33;;;;;;;;;;;17.50;65.20;;;;;;5025569;28;792;-71
2023/01/22 05:15:59;;;;;;;;;;;17.60;64.40;;;;;;5030771;28;1919;-71
2023/01/22 05:18:24;;;;;;;;;;;17.60;64.30;;;;;;5023493;28;1286;-71
2023/01/22 05:20:50;;;;;;;;;;;17.60;64.20;;;;;;5022444;28;951;-72
2023/01/22 05:23:15;;;;;;;;;;;17.70;64.10;;;;;;5022543;28;879;-71
2023/01/22 05:25:45;;;;;;;;;;;17.70;63.90;;;;;;5020985;28;893;-74
2023/01/22 05:28:11;;;;;;;;;;;17.70;63.80;;;;;;5056171;28;1346;-73
2023/01/22 05:30:36;;;;;;;;;;;17.80;63.70;;;;;;5033161;28;1123;-72
2023/01/22 05:33:02;;;;;;;;;;;17.80;63.50;;;;;;5021537;28;860;-72
2023/01/22 05:35:27;;;;;;;;;;;17.80;63.40;;;;;;5021434;28;916;-72
2023/01/22 05:37:52;;;;;;;;;;;17.90;63.40;;;;;;5021061;28;1922;-72
2023/01/22 05:40:18;;;;;;;;;;;17.90;63.20;;;;;;5019422;28;1006;-72
2023/01/22 05:42:43;;;;;;;;;;;17.90;63.10;;;;;;5049629;28;887;-72
2023/01/22 05:45:09;;;;;;;;;;;17.90;63.00;;;;;;5026573;28;888;-72
2023/01/22 05:47:35;;;;;;;;;;;18.00;63.00;;;;;;5022281;28;1345;-72
2023/01/22 05:50:00;;;;;;;;;;;18.00;63.00;;;;;;5018814;28;1042;-73
2023/01/22 05:52:26;;;;;;;;;;;18.00;62.90;;;;;;5019501;28;824;-73
2023/01/22 05:54:51;;;;;;;;;;;18.00;62.80;;;;;;5018452;28;857;-73
2023/01/22 05:57:16;;;;;;;;;;;18.00;62.80;;;;;;5019060;28;1973;-73
2023/01/22 05:59:42;;;;;;;;;;;18.00;62.70;;;;;;5019846;28;966;-73
2023/01/22 06:02:07;;;;;;;;;;;18.00;62.70;;;;;;5018703;28;785;-73
2023/01/22 06:04:33;;;;;;;;;;;18.10;62.70;;;;;;5017953;28;1310;-73
2023/01/22 06:06:58;;;;;;;;;;;18.10;62.70;;;;;;5021021;28;1351;-72
2023/01/22 06:09:24;;;;;;;;;;;18.10;62.70;;;;;;5022027;28;1598;-71
2023/01/22 06:11:49;;;;;;;;;;;18.10;62.60;;;;;;5020631;28;871;-72
2023/01/22 06:14:15;;;;;;;;;;;18.10;62.60;;;;;;5021700;28;1057;-74
2023/01/22 06:16:40;;;;;;;;;;;18.00;62.40;;;;;;5052553;28;1914;-72
2023/01/22 06:19:06;;;;;;;;;;;18.10;62.50;;;;;;5018613;28;1271;-72
2023/01/22 06:21:31;;;;;;;;;;;18.10;62.50;;;;;;5033490;28;1300;-71
2023/01/22 06:23:57;;;;;;;;;;;18.10;62.50;;;;;;5019446;28;990;-71
2023/01/22 06:26:22;;;;;;;;;;;18.10;62.40;;;;;;5017466;28;808;-71
2023/01/22 06:28:48;;;;;;;;;;;18.10;62.40;;;;;;5020024;28;1272;-74
2023/01/22 06:31:13;;;;;;;;;;;18.10;62.50;;;;;;5021616;28;1014;-73
2023/01/22 06:33:40;;;;;;;;;;;18.10;62.40;;;;;;5016335;28;840;-73
2023/01/22 06:36:05;;;;;;;;;;;18.10;62.40;;;;;;5019749;28;1975;-74
2023/01/22 06:38:31;;;;;;;;;;;18.10;62.40;;;;;;5019258;28;1220;-74
2023/01/22 06:40:57;;;;;;;;;;;18.10;62.40;;;;;;5021403;28;896;-74
2023/01/22 06:43:22;;;;;;;;;;;18.10;62.40;;;;;;5049724;28;837;-73
2023/01/22 06:45:48;;;;;;;;;;;18.10;62.40;;;;;;5049636;28;829;-74
2023/01/22 06:48:14;;;;;;;;;;;18.10;62.30;;;;;;5050013;28;1358;-73
2023/01/22 06:50:39;;;;;;;;;;;18.10;62.30;;;;;;5018027;28;813;-74
2023/01/22 06:53:05;;;;;;;;;;;18.10;62.40;;;;;;5049984;28;899;-72
2023/01/22 06:55:30;;;;;;;;;;;18.10;62.40;;;;;;5018693;28;1014;-72
2023/01/22 06:57:56;;;;;;;;;;;18.10;62.40;;;;;;5018394;28;1899;-71
2023/01/22 07:00:21;;;;;;;;;;;18.10;62.40;;;;;;5017168;28;800;-71
2023/01/22 07:02:47;;;;;;;;;;;18.10;62.50;;;;;;5018270;28;1386;-71
2023/01/22 07:05:14;;;;;;;;;;;18.10;62.50;;;;;;5017272;28;1325;-71
2023/01/22 07:07:40;;;;;;;;;;;18.10;62.50;;;;;;5016426;28;1317;-71
2023/01/22 07:10:05;;;;;;;;;;;18.10;62.50;;;;;;5015927;28;872;-71
2023/01/22 07:12:31;;;;;;;;;;;18.10;62.50;;;;;;5017843;28;875;-71
2023/01/22 07:14:56;;;;;;;;;;;18.00;62.50;;;;;;5018154;28;912;-71
2023/01/22 07:17:22;;;;;;;;;;;18.10;62.60;;;;;;5018654;28;1965;-71
2023/01/22 07:19:47;;;;;;;;;;;18.00;62.50;;;;;;5018599;28;872;-71
2023/01/22 07:22:13;;;;;;;;;;;18.10;62.70;;;;;;5018289;28;1019;-70
2023/01/22 07:24:38;;;;;;;;;;;18.00;62.70;;;;;;5021731;28;876;-71
2023/01/22 07:27:03;;;;;;;;;;;18.00;62.70;;;;;;5020301;28;1358;-71
2023/01/22 07:29:29;;;;;;;;;;;18.00;62.70;;;;;;5017914;28;879;-71
2023/01/22 07:31:54;;;;;;;;;;;18.00;62.70;;;;;;5016981;28;1018;-71
2023/01/22 07:34:20;;;;;;;;;;;18.00;62.80;;;;;;5017837;28;859;-71
2023/01/22 07:36:45;;;;;;;;;;;18.00;62.80;;;;;;5023680;28;1955;-71
2023/01/22 07:39:11;;;;;;;;;;;18.00;62.80;;;;;;5015049;28;1046;-71
2023/01/22 07:41:36;;;;;;;;;;;18.00;62.80;;;;;;5018130;28;850;-71
2023/01/22 07:44:02;;;;;;;;;;;18.00;62.90;;;;;;5019394;28;1242;-73
2023/01/22 07:46:28;;;;;;;;;;;18.00;62.90;;;;;;5018710;28;957;-71
2023/01/22 07:48:53;;;;;;;;;;;17.90;62.90;;;;;;5015878;28;1323;-71
2023/01/22 07:51:19;;;;;;;;;;;17.90;62.90;;;;;;5019812;28;897;-71
2023/01/22 07:53:44;;;;;;;;;;;17.90;62.90;;;;;;5023800;28;801;-71
2023/01/22 07:56:09;;;;;;;;;;;17.90;63.00;;;;;;5020681;28;1898;-71
2023/01/22 07:58:35;;;;;;;;;;;17.90;63.00;;;;;;5023151;28;1288;-71
2023/01/22 08:01:04;;;;;;;;;;;17.90;63.00;;;;;;5021828;28;825;-71
2023/01/22 08:03:32;;;;;;;;;;;17.90;63.00;;;;;;5054277;28;1279;-71
2023/01/22 08:05:58;;;;;;;;;;;17.90;63.00;;;;;;5020265;28;915;-71
2023/01/22 08:08:23;;;;;;;;;;;17.90;63.00;;;;;;5055199;28;1905;-73
2023/01/22 08:10:49;;;;;;;;;;;17.90;63.10;;;;;;5022257;28;1960;-70
2023/01/22 08:13:14;;;;;;;;;;;17.90;63.10;;;;;;5022299;28;1501;-71
2023/01/22 08:15:40;;;;;;;;;;;17.90;63.00;;;;;;5022915;28;1966;-71
2023/01/22 08:18:06;;;;;;;;;;;17.90;63.00;;;;;;5018687;28;1359;-71
2023/01/22 08:20:32;;;;;;;;;;;17.90;63.00;;;;;;5020591;28;855;-71
2023/01/22 08:22:58;;;;;;;;;;;17.90;62.90;;;;;;5021024;28;911;-73
2023/01/22 08:25:24;;;;;;;;;;;18.00;63.00;;;;;;5053201;28;895;-70
2023/01/22 08:27:49;;;;;;;;;;;18.00;62.90;;;;;;5022729;28;1269;-71
2023/01/22 08:30:15;;;;;;;;;;;18.00;62.90;;;;;;5021695;28;924;-70
2023/01/22 08:32:40;;;;;;;;;;;18.00;62.80;;;;;;5021114;28;863;-70
2023/01/22 08:35:06;;;;;;;;;;;18.00;62.80;;;;;;5021710;28;953;-70
2023/01/22 08:37:32;;;;;;;;;;;18.00;62.70;;;;;;5051937;28;1957;-71
2023/01/22 08:39:57;;;;;;;;;;;18.00;62.70;;;;;;5020743;28;1312;-72
2023/01/22 08:42:23;;;;;;;;;;;18.10;62.70;;;;;;5021595;28;896;-72
2023/01/22 08:44:48;;;;;;;;;;;18.10;62.70;;;;;;5021479;28;945;-71
2023/01/22 08:47:14;;;;;;;;;;;18.10;62.60;;;;;;5021831;28;1276;-72
2023/01/22 08:49:39;;;;;;;;;;;18.10;62.60;;;;;;5030108;28;1305;-72
2023/01/22 08:52:05;;;;;;;;;;;18.10;62.50;;;;;;5019997;28;851;-70
2023/01/22 08:54:30;;;;;;;;;;;18.10;62.50;;;;;;5021129;28;1414;-70
2023/01/22 08:56:55;;;;;;;;;;;18.10;62.50;;;;;;5018432;28;1959;-70
2023/01/22 08:59:21;;;;;;;;;;;18.10;62.40;;;;;;5029343;28;896;-71
2023/01/22 09:01:46;;;;;;;;;;;18.10;62.40;;;;;;5022098;28;829;-71
2023/01/22 09:04:12;;;;;;;;;;;18.10;62.40;;;;;;5021326;28;891;-71
2023/01/22 09:06:37;;;;;;;;;;;18.10;62.40;;;;;;5022008;28;1276;-71
2023/01/22 09:09:03;;;;;;;;;;;18.10;62.30;;;;;;5024884;28;1070;-71
2023/01/22 09:11:28;;;;;;;;;;;18.10;62.30;;;;;;5023997;28;1239;-71
2023/01/22 09:13:55;;;;;;;;;;;18.20;62.40;;;;;;5022238;28;778;-71
2023/01/22 09:16:22;;;;;;;;;;;18.10;62.30;;;;;;5019512;28;1910;-71
2023/01/22 09:18:47;;;;;;;;;;;18.10;62.30;;;;;;5038280;28;1350;-72
2023/01/22 09:21:13;;;;;;;;;;;18.20;62.30;;;;;;5018852;28;954;-71
2023/01/22 09:23:38;;;;;;;;;;;18.20;62.30;;;;;;5050592;28;871;-71
2023/01/22 09:26:03;;;;;;;;;;;18.20;62.30;;;;;;5019625;28;923;-72
2023/01/22 09:28:29;;;;;;;;;;;18.20;62.30;;;;;;5033223;28;1349;-71
2023/01/22 09:30:54;;;;;;;;;;;18.20;62.30;;;;;;5021780;28;798;-72
2023/01/22 09:33:20;;;;;;;;;;;18.20;62.20;;;;;;5021200;28;825;-71
2023/01/22 09:35:45;;;;;;;;;;;18.20;62.20;;;;;;5023547;28;1911;-72
2023/01/22 09:38:14;;;;;;;;;;;18.20;62.20;;;;;;5019682;28;1283;-71
2023/01/22 09:40:57;;;;;;;;;;;18.20;62.20;;;;;;5017992;28;945;-71
2023/01/22 09:43:24;;;;;;;;;;;18.20;62.20;;;;;;5050745;28;1237;-72
2023/01/22 09:45:51;;;;;;;;;;;18.20;62.20;;;;;;5020781;28;840;-72
2023/01/22 09:48:16;;;;;;;;;;;18.20;62.20;;;;;;5019309;28;1281;-72
2023/01/22 09:50:42;;;;;;;;;;;18.20;62.20;;;;;;5019047;28;1007;-71
2023/01/22 09:53:08;;;;;;;;;;;18.20;62.20;;;;;;5018861;28;809;-71
2023/01/22 09:55:39;;;;;;;;;;;18.20;62.20;;;;;;5050407;28;884;-74
2023/01/22 09:58:06;;;;;;;;;;;18.20;62.20;;;;;;5020126;28;1311;-73
2023/01/22 10:00:37;;;;;;;;;;;18.20;62.20;;;;;;5051767;28;1785;-73
2023/01/22 10:03:04;;;;;;;;;;;18.20;62.20;;;;;;5054600;28;879;-73
2023/01/22 10:05:34;;;;;;;;;;;18.20;62.20;;;;;;5019386;28;1027;-73
2023/01/22 10:08:10;;;;;;;;;;;18.20;62.20;;;;;;5055491;28;1287;-73
2023/01/22 10:10:35;;;;;;;;;;;18.20;63.00;;;;;;5020947;28;1489;-71
2023/01/22 10:13:21;;;;;;;;;;;18.20;62.20;;;;;;5024189;28;1896;-71
2023/01/22 10:15:50;;;;;;;;;;;18.20;62.20;;;;;;5020282;28;1879;-72
2023/01/22 10:18:35;;;;;;;;;;;18.20;62.20;;;;;;5020922;28;1252;-71
2023/01/22 10:21:02;;;;;;;;;;;18.20;62.20;;;;;;5018695;28;765;-71
2023/01/22 10:23:29;;;;;;;;;;;18.20;62.20;;;;;;5026408;28;875;-72
2023/01/22 10:25:56;;;;;;;;;;;18.20;62.30;;;;;;5034549;28;1338;-72
2023/01/22 10:28:23;;;;;;;;;;;18.20;62.30;;;;;;5052323;28;1259;-72
2023/01/22 10:30:48;;;;;;;;;;;18.20;62.30;;;;;;5020668;28;780;-72
2023/01/22 10:33:21;;;;;;;;;;;18.20;62.30;;;;;;5024357;28;1203;-71
2023/01/22 10:35:50;;;;;;;;;;;18.10;62.30;;;;;;5050020;28;1910;-70
2023/01/22 10:38:34;;;;;;;;;;;18.10;62.30;;;;;;5035676;28;1393;-70
2023/01/22 10:41:00;;;;;;;;;;;18.10;62.30;;;;;;5018279;28;2084;-71
2023/01/22 10:43:29;;;;;;;;;;;18.10;62.30;;;;;;5019068;28;1833;-71
2023/01/22 10:45:57;;;;;;;;;;;18.10;62.40;;;;;;5052493;28;1129;-71
2023/01/22 10:48:22;;;;;;;;;;;18.10;62.40;;;;;;5018821;28;1443;-70
2023/01/22 10:51:11;;;;;;;;;;;18.10;62.40;;;;;;5019663;28;2324;-72
2023/01/22 10:53:37;;;;;;;;;;;18.10;62.40;;;;;;5047333;28;1249;-71
2023/01/22 10:56:03;;;;;;;;;;;18.10;62.40;;;;;;5020767;28;1967;-71
2023/01/22 10:58:33;;;;;;;;;;;18.10;62.50;;;;;;5018582;28;1799;-71
2023/01/22 11:01:02;;;;;;;;;;;18.00;62.40;;;;;;5051895;28;820;-72
2023/01/22 11:03:29;;;;;;;;;;;18.10;62.50;;;;;;5020250;28;963;-71
2023/01/22 11:06:12;;;;;;;;;;;18.10;62.50;;;;;;5051097;28;911;-72
2023/01/22 11:08:43;;;;;;;;;;;18.10;62.50;;;;;;5052459;28;1400;-72
2023/01/22 11:11:09;;;;;;;;;;;18.10;62.60;;;;;;5052888;28;1348;-71
2023/01/22 11:13:41;;;;;;;;;;;18.10;62.50;;;;;;5019140;28;1329;-72
2023/01/22 11:16:16;;;;;;;;;;;18.10;62.50;;;;;;5052340;28;1910;-73
2023/01/22 11:18:42;;;;;;;;;;;18.10;62.60;;;;;;5022188;28;1322;-73
2023/01/22 11:21:15;;;;;;;;;;;18.10;62.50;;;;;;5051118;28;1313;-73
2023/01/22 11:23:46;;;;;;;;;;;18.10;62.60;;;;;;5020817;28;1542;-74
2023/01/22 11:26:24;;;;;;;;;;;18.10;62.60;;;;;;5024179;28;1268;-73
2023/01/22 11:28:52;;;;;;;;;;;18.10;62.50;;;;;;5024801;28;1369;-71
2023/01/22 11:31:23;;;;;;;;;;;18.10;62.50;;;;;;5022382;28;991;-73
2023/01/22 11:34:08;;;;;;;;;;;18.10;62.40;;;;;;5050485;28;1363;-74
2023/01/22 11:36:38;;;;;;;;;;;18.10;62.50;;;;;;5024607;28;1902;-71
2023/01/22 11:39:08;;;;;;;;;;;18.10;62.40;;;;;;5010889;28;1132;-73
2023/01/22 11:41:47;;;;;;;;;;;18.10;62.40;;;;;;5046286;28;1333;-73
2023/01/22 11:44:24;;;;;;;;;;;18.10;62.30;;;;;;5027069;28;1290;-73
2023/01/22 11:46:50;;;;;;;;;;;18.10;62.30;;;;;;5054485;28;1409;-71
2023/01/22 11:49:33;;;;;;;;;;;18.10;62.30;;;;;;5021785;28;1275;-71
2023/01/22 11:51:59;;;;;;;;;;;18.20;62.30;;;;;;5022675;28;1081;-72
2023/01/22 11:54:43;;;;;;;;;;;18.20;62.30;;;;;;5021276;28;2138;-73
2023/01/22 11:57:13;;;;;;;;;;;18.20;62.30;;;;;;5055802;28;1957;-72
2023/01/22 11:59:57;;;;;;;;;;;18.20;62.20;;;;;;5029970;28;1528;-73
2023/01/22 12:02:29;;;;;;;;;;;18.20;62.20;;;;;;5022840;28;805;-72
2023/01/22 12:05:07;;;;;;;;;;;18.20;62.20;;;;;;5019508;28;1326;-73
2023/01/22 12:07:45;;;;;;;;;;;18.20;62.20;;;;;;5022003;28;1303;-72
2023/01/22 12:10:29;;;;;;;;;;;18.20;62.20;;;;;;5033540;28;894;-72
2023/01/22 12:13:13;;;;;;;;;;;18.20;62.20;;;;;;5019246;28;856;-73
2023/01/22 12:15:51;;;;;;;;;;;18.20;62.10;;;;;;5021841;28;968;-73
2023/01/22 12:18:19;;;;;;;;;;;18.20;62.10;;;;;;5038993;28;1694;-73
2023/01/22 12:20:48;;;;;;;;;;;18.20;62.10;;;;;;5022513;28;1342;-73
2023/01/22 12:23:14;;;;;;;;;;;18.20;62.10;;;;;;5004172;28;1420;-73
2023/01/22 12:25:39;;;;;;;;;;;18.20;62.20;;;;;;5022896;28;1345;-72
2023/01/22 12:28:05;;;;;;;;;;;18.20;62.10;;;;;;5021315;28;2115;-72
2023/01/22 12:30:37;;;;;;;;;;;18.20;62.10;;;;;;5038997;28;1333;-72
2023/01/22 12:33:02;;;;;;;;;;;18.20;62.10;;;;;;5054461;28;1326;-72
2023/01/22 12:35:29;;;;;;;;;;;18.20;62.10;;;;;;5051687;28;1179;-72
2023/01/22 12:37:57;;;;;;;;;;;18.20;62.10;;;;;;5016523;28;2097;-72
2023/01/22 12:40:23;;;;;;;;;;;18.20;62.10;;;;;;5019297;28;1930;-72
2023/01/22 12:42:51;;;;;;;;;;;18.20;62.10;;;;;;5021860;28;1445;-72
2023/01/22 12:45:21;;;;;;;;;;;18.20;62.20;;;;;;5020889;28;1789;-71
2023/01/22 12:47:58;;;;;;;;;;;18.20;63.00;;;;;;5029076;28;1586;-72
2023/01/22 12:50:25;;;;;;;;;;;18.20;62.20;;;;;;5019954;28;1438;-72
2023/01/22 12:52:57;;;;;;;;;;;18.20;62.30;;;;;;5022028;28;1317;-72
2023/01/22 12:55:30;;;;;;;;;;;18.10;62.30;;;;;;5057027;28;1379;-70
2023/01/22 12:57:55;;;;;;;;;;;18.10;62.30;;;;;;5054701;28;1898;-71
2023/01/22 13:00:22;;;;;;;;;;;18.10;62.40;;;;;;5054420;28;1458;-71
2023/01/22 13:02:48;;;;;;;;;;;18.10;62.40;;;;;;5020583;28;895;-71
2023/01/22 13:05:29;;;;;;;;;;;18.10;62.50;;;;;;5054537;28;1348;-71
2023/01/22 13:08:13;;;;;;;;;;;18.10;63.30;;;;;;5037916;28;1389;-71
2023/01/22 13:10:38;;;;;;;;;;;18.10;62.60;;;;;;5020296;28;895;-72
2023/01/22 13:13:16;;;;;;;;;;;18.10;62.70;;;;;;5023956;28;923;-72
2023/01/22 13:15:41;;;;;;;;;;;18.10;62.70;;;;;;5036183;28;975;-71
2023/01/22 13:18:23;;;;;;;;;;;18.00;62.70;;;;;;5035139;28;1906;-72
2023/01/22 13:20:53;;;;;;;;;;;18.00;62.70;;;;;;5017574;28;947;-72
2023/01/22 13:23:18;;;;;;;;;;;18.00;62.80;;;;;;5036280;28;903;-72
2023/01/22 13:25:44;;;;;;;;;;;18.00;62.80;;;;;;5019162;28;871;-73
2023/01/22 13:28:15;;;;;;;;;;;18.00;62.80;;;;;;5019948;28;1272;-72
2023/01/22 13:30:40;;;;;;;;;;;18.00;62.90;;;;;;5052369;28;830;-72
2023/01/22 13:33:10;;;;;;;;;;;18.00;62.90;;;;;;5020389;28;928;-72
2023/01/22 13:35:36;;;;;;;;;;;18.00;63.00;;;;;;5022991;28;977;-71
2023/01/22 13:38:01;;;;;;;;;;;17.90;62.90;;;;;;5050499;28;1925;-72
2023/01/22 13:40:27;;;;;;;;;;;17.90;62.90;;;;;;5024812;28;1203;-72
2023/01/22 13:42:53;;;;;;;;;;;17.90;63.00;;;;;;5050758;28;842;-72
2023/01/22 13:45:22;;;;;;;;;;;17.90;63.00;;;;;;5053595;28;883;-72
2023/01/22 13:47:49;;;;;;;;;;;17.90;63.10;;;;;;5011195;28;1327;-72
2023/01/22 13:50:22;;;;;;;;;;;17.90;63.10;;;;;;5021031;28;923;-72
2023/01/22 13:52:49;;;;;;;;;;;17.90;63.10;;;;;;5021748;28;1713;-72
2023/01/22 13:55:15;;;;;;;;;;;17.90;63.20;;;;;;5034771;28;2368;-72
2023/01/22 13:57:44;;;;;;;;;;;17.90;63.20;;;;;;5041641;28;1898;-72
2023/01/22 14:00:20;;;;;;;;;;;17.90;63.30;;;;;;5051871;28;1363;-71
2023/01/22 14:02:46;;;;;;;;;;;17.80;63.20;;;;;;5020209;28;887;-72
2023/01/22 14:05:15;;;;;;;;;;;17.80;63.20;;;;;;5018843;28;1460;-73
2023/01/22 14:07:41;;;;;;;;;;;17.80;63.20;;;;;;5050106;28;1428;-70
2023/01/22 14:10:13;;;;;;;;;;;17.80;63.30;;;;;;5027887;28;1231;-71
2023/01/22 14:12:39;;;;;;;;;;;17.80;63.30;;;;;;5020712;28;1456;-72
2023/01/22 14:15:14;;;;;;;;;;;17.80;63.30;;;;;;5032211;28;2227;-73
2023/01/22 14:17:40;;;;;;;;;;;17.80;63.40;;;;;;5020623;28;1906;-73
2023/01/22 14:20:05;;;;;;;;;;;17.80;63.20;;;;;;5017330;28;1363;-72
2023/01/22 14:22:31;;;;;;;;;;;17.90;63.50;;;;;;5025962;28;1311;-73
2023/01/22 14:24:56;;;;;;;;;;;17.90;63.20;;;;;;5017226;28;1051;-71
2023/01/22 14:27:22;;;;;;;;;;;17.90;63.20;;;;;;5017016;28;1379;-73
2023/01/22 14:29:48;;;;;;;;;;;17.90;63.00;;;;;;5048846;28;856;-73
2023/01/22 14:32:14;;;;;;;;;;;17.90;63.00;;;;;;5038714;28;1346;-74
2023/01/22 14:34:39;;;;;;;;;;;17.90;63.00;;;;;;5054909;28;1314;-73
2023/01/22 14:37:05;;;;;;;;;;;17.90;63.00;;;;;;5017375;28;1918;-72
2023/01/22 14:39:31;;;;;;;;;;;17.90;63.00;;;;;;5050504;28;2159;-74
2023/01/22 14:42:00;;;;;;;;;;;17.90;63.00;;;;;;5040793;28;1878;-72
2023/01/22 14:44:25;;;;;;;;;;;17.90;63.00;;;;;;5026355;28;1970;-72